createdAt,value
2022-12-22T00:01:10.643Z,13.00
2022-12-22T00:03:58.585Z,13.60
2022-12-22T00:06:46.503Z,13.40
2022-12-22T00:09:33.896Z,13.60
2022-12-22T00:12:21.185Z,13.20
2022-12-22T00:15:08.498Z,13.50
2022-12-22T00:17:56.140Z,13.90
2022-12-22T00:20:44.052Z,13.60
2022-12-22T00:23:31.625Z,14.30
2022-12-22T00:26:18.915Z,13.00
2022-12-22T00:29:06.261Z,14.10
2022-12-22T00:31:53.608Z,13.20
2022-12-22T00:34:41.448Z,12.00
2022-12-22T00:37:30.466Z,12.20
2022-12-22T00:40:18.483Z,12.20
2022-12-22T00:43:06.052Z,11.90
2022-12-22T00:46:00.291Z,12.40
2022-12-22T00:48:47.853Z,12.20
2022-12-22T00:51:35.313Z,13.30
2022-12-22T00:54:27.357Z,12.80
2022-12-22T00:57:14.781Z,12.70
2022-12-22T01:00:02.211Z,12.20
2022-12-22T01:02:50.167Z,13.20
2022-12-22T01:05:38.457Z,11.30
2022-12-22T01:08:28.167Z,11.70
2022-12-22T01:11:15.629Z,11.40
2022-12-22T01:14:02.953Z,11.60
2022-12-22T01:16:50.648Z,10.30
2022-12-22T01:19:38.266Z,11.50
2022-12-22T01:22:35.032Z,11.30
2022-12-22T01:25:28.451Z,11.10
2022-12-22T01:31:04.638Z,10.30
2022-12-22T01:33:52.148Z,10.40
2022-12-22T01:36:39.691Z,11.00
2022-12-22T01:39:27.503Z,11.70
2022-12-22T01:42:15.067Z,11.50
2022-12-22T01:45:02.403Z,11.80
2022-12-22T01:47:51.662Z,11.20
2022-12-22T01:50:50.682Z,11.00
2022-12-22T01:53:40.061Z,11.50
2022-12-22T01:56:27.383Z,12.70
2022-12-22T01:59:18.201Z,12.60
2022-12-22T02:02:05.650Z,12.60
2022-12-22T02:04:55.621Z,12.60
2022-12-22T02:08:00.699Z,12.50
2022-12-22T02:10:48.021Z,11.40
2022-12-22T02:13:43.313Z,11.50
2022-12-22T02:16:37.178Z,11.30
2022-12-22T02:19:24.756Z,12.40
2022-12-22T02:22:12.269Z,11.80
2022-12-22T02:25:02.387Z,11.40
2022-12-22T02:27:52.647Z,11.80
2022-12-22T02:30:40.265Z,13.00
2022-12-22T02:33:27.644Z,10.90
2022-12-22T02:36:24.296Z,13.30
2022-12-22T02:39:30.625Z,13.00
2022-12-22T02:42:34.603Z,12.40
2022-12-22T02:45:45.502Z,12.70
2022-12-22T02:48:39.491Z,12.70
2022-12-22T02:51:35.049Z,13.20
2022-12-22T02:54:24.035Z,13.10
2022-12-22T02:57:11.612Z,12.40
2022-12-22T02:59:59.073Z,12.40
2022-12-22T03:02:46.871Z,12.70
2022-12-22T03:05:34.775Z,10.30
2022-12-22T03:08:22.098Z,12.50
2022-12-22T03:11:09.421Z,12.10
2022-12-22T03:13:57.196Z,11.40
2022-12-22T03:16:44.652Z,11.10
2022-12-22T03:19:31.897Z,11.50
2022-12-22T03:22:19.756Z,11.40
2022-12-22T03:25:07.584Z,11.40
2022-12-22T03:27:36.256Z,11.00
2022-12-22T03:30:05.282Z,11.10
2022-12-22T03:32:34.017Z,10.80
2022-12-22T03:35:02.717Z,10.90
2022-12-22T03:37:31.540Z,10.90
2022-12-22T03:40:00.227Z,10.70
2022-12-22T03:42:47.671Z,11.00
2022-12-22T03:45:35.034Z,10.50
2022-12-22T03:48:03.791Z,7.60
2022-12-22T03:50:32.692Z,10.10
2022-12-22T03:53:01.507Z,10.60
2022-12-22T03:55:30.238Z,10.90
2022-12-22T03:57:58.979Z,10.50
2022-12-22T04:00:27.748Z,10.80
2022-12-22T04:02:58.027Z,9.90
2022-12-22T04:05:27.954Z,11.50
2022-12-22T04:07:56.813Z,10.70
2022-12-22T04:10:44.062Z,10.20
2022-12-22T04:13:12.752Z,9.80
2022-12-22T04:15:41.409Z,10.10
2022-12-22T04:18:10.111Z,10.20
2022-12-22T04:20:38.870Z,10.10
2022-12-22T04:23:07.566Z,10.20
2022-12-22T04:25:36.307Z,10.40
2022-12-22T04:28:05.040Z,9.90
2022-12-22T04:30:33.733Z,10.60
2022-12-22T04:33:02.439Z,9.00
2022-12-22T04:35:31.125Z,10.10
2022-12-22T04:37:59.822Z,9.40
2022-12-22T04:40:28.591Z,9.90
2022-12-22T04:42:57.285Z,9.60
2022-12-22T04:45:26.022Z,9.90
2022-12-22T04:47:54.762Z,9.60
2022-12-22T04:50:23.503Z,10.70
2022-12-22T04:52:52.187Z,9.00
2022-12-22T04:55:21.102Z,10.60
2022-12-22T04:57:49.831Z,11.00
2022-12-22T05:00:18.945Z,9.80
2022-12-22T05:02:47.770Z,9.20
2022-12-22T05:05:16.637Z,9.70
2022-12-22T05:07:45.452Z,10.50
2022-12-22T05:10:14.197Z,9.70
2022-12-22T05:12:55.154Z,9.70
2022-12-22T05:15:25.084Z,9.10
2022-12-22T05:17:54.295Z,10.30
2022-12-22T05:20:23.525Z,9.80
2022-12-22T05:22:52.611Z,9.40
2022-12-22T05:25:21.357Z,10.70
2022-12-22T05:27:50.697Z,9.30
2022-12-22T05:30:20.163Z,9.70
2022-12-22T05:32:48.865Z,9.90
2022-12-22T05:35:17.584Z,9.50
2022-12-22T05:37:46.301Z,9.70
2022-12-22T05:40:15.013Z,10.00
2022-12-22T05:42:43.696Z,9.60
2022-12-22T05:45:15.066Z,9.50
2022-12-22T05:47:44.832Z,9.40
2022-12-22T05:50:14.381Z,9.00
2022-12-22T05:52:43.455Z,9.50
2022-12-22T05:55:12.595Z,9.10
2022-12-22T05:57:41.733Z,9.10
2022-12-22T06:00:12.757Z,9.20
2022-12-22T06:02:42.445Z,8.60
2022-12-22T06:05:12.461Z,9.40
2022-12-22T06:07:41.526Z,9.40
2022-12-22T06:10:12.786Z,9.40
2022-12-22T06:12:42.124Z,9.20
2022-12-22T06:15:11.939Z,7.80
2022-12-22T06:17:44.812Z,9.70
2022-12-22T06:20:14.292Z,9.60
2022-12-22T06:22:43.148Z,9.30
2022-12-22T06:25:17.555Z,8.60
2022-12-22T06:27:47.419Z,8.40
2022-12-22T06:30:16.509Z,9.30
2022-12-22T06:32:45.244Z,8.80
2022-12-22T06:35:14.251Z,8.70
2022-12-22T06:37:42.921Z,7.60
2022-12-22T06:40:11.860Z,9.40
2022-12-22T06:43:04.096Z,8.50
2022-12-22T06:45:37.875Z,8.50
2022-12-22T06:48:07.204Z,8.70
2022-12-22T06:50:36.138Z,8.80
2022-12-22T06:53:05.466Z,8.70
2022-12-22T06:55:34.713Z,7.00
2022-12-22T06:58:03.622Z,9.30
2022-12-22T07:00:32.836Z,7.70
2022-12-22T07:03:01.859Z,8.80
2022-12-22T07:05:32.012Z,9.20
2022-12-22T07:08:07.772Z,8.60
2022-12-22T07:10:56.467Z,8.40
2022-12-22T07:13:27.410Z,9.10
2022-12-22T07:16:00.781Z,8.90
2022-12-22T07:18:31.294Z,9.20
2022-12-22T07:21:01.881Z,7.70
2022-12-22T07:23:30.924Z,8.60
2022-12-22T07:25:59.989Z,9.10
2022-12-22T07:28:28.946Z,8.50
2022-12-22T07:30:57.803Z,8.50
2022-12-22T07:33:26.668Z,8.90
2022-12-22T07:36:08.759Z,8.30
2022-12-22T07:38:38.833Z,8.60
2022-12-22T07:41:28.188Z,8.60
2022-12-22T07:43:57.756Z,8.80
2022-12-22T07:46:28.209Z,9.80
2022-12-22T07:49:15.969Z,8.80
2022-12-22T07:51:45.165Z,9.10
2022-12-22T07:54:15.497Z,9.20
2022-12-22T07:56:44.907Z,8.80
2022-12-22T07:59:14.013Z,9.00
2022-12-22T08:01:43.076Z,8.90
2022-12-22T08:04:12.792Z,9.60
2022-12-22T08:06:41.624Z,9.50
2022-12-22T08:09:13.091Z,9.10
2022-12-22T08:11:41.973Z,9.30
2022-12-22T08:14:10.729Z,8.80
2022-12-22T08:16:39.511Z,9.60
2022-12-22T08:19:08.379Z,9.20
2022-12-22T08:21:37.086Z,9.60
2022-12-22T08:24:06.147Z,9.20
2022-12-22T08:26:36.953Z,8.50
2022-12-22T08:29:34.896Z,9.50
2022-12-22T08:32:03.848Z,9.20
2022-12-22T08:34:32.722Z,8.50
2022-12-22T08:37:02.614Z,8.30
2022-12-22T08:39:32.955Z,9.30
2022-12-22T08:42:03.764Z,8.80
2022-12-22T08:44:32.460Z,8.90
2022-12-22T08:47:01.263Z,8.50
2022-12-22T08:49:29.980Z,9.00
2022-12-22T08:51:58.728Z,9.10
2022-12-22T08:54:27.539Z,9.40
2022-12-22T08:56:56.363Z,8.80
2022-12-22T08:59:25.038Z,9.40
2022-12-22T09:01:54.028Z,9.00
2022-12-22T09:04:24.330Z,10.00
2022-12-22T09:06:53.568Z,10.40
2022-12-22T09:09:22.542Z,10.20
2022-12-22T09:11:51.546Z,10.10
2022-12-22T09:14:20.369Z,10.70
2022-12-22T09:16:50.480Z,11.30
2022-12-22T09:19:19.484Z,10.80
2022-12-22T09:21:48.266Z,11.40
2022-12-22T09:24:17.248Z,11.60
2022-12-22T09:26:45.906Z,11.00
2022-12-22T09:29:15.840Z,10.40
2022-12-22T09:31:44.898Z,11.90
2022-12-22T09:34:18.023Z,10.80
2022-12-22T09:36:47.780Z,10.80
2022-12-22T09:39:17.040Z,10.50
2022-12-22T09:41:50.918Z,10.70
2022-12-22T09:44:25.240Z,11.70
2022-12-22T09:46:55.332Z,10.80
2022-12-22T09:49:24.264Z,10.40
2022-12-22T09:51:56.029Z,10.90
2022-12-22T09:54:25.145Z,10.70
2022-12-22T09:56:53.865Z,10.10
2022-12-22T09:59:22.928Z,10.40
2022-12-22T10:01:51.811Z,10.70
2022-12-22T10:04:26.414Z,10.60
2022-12-22T10:07:07.265Z,9.90
2022-12-22T10:09:52.221Z,10.70
2022-12-22T10:12:22.312Z,10.40
2022-12-22T10:14:52.192Z,11.40
2022-12-22T10:17:34.123Z,9.90
2022-12-22T10:20:21.495Z,10.10
2022-12-22T10:22:53.310Z,10.80
2022-12-22T10:25:52.286Z,10.60
2022-12-22T10:28:42.352Z,10.80
2022-12-22T10:31:22.067Z,9.90
2022-12-22T10:33:52.289Z,9.90
2022-12-22T10:36:28.855Z,10.30
2022-12-22T10:39:00.255Z,10.50
2022-12-22T10:41:31.229Z,10.00
2022-12-22T10:44:02.306Z,11.40
2022-12-22T10:46:41.341Z,10.40
2022-12-22T10:49:12.172Z,10.70
2022-12-22T10:51:41.724Z,10.40
2022-12-22T10:54:23.383Z,10.20
2022-12-22T10:57:04.420Z,10.20
2022-12-22T10:59:34.046Z,10.30
2022-12-22T11:02:21.177Z,9.70
2022-12-22T11:04:50.882Z,10.00
2022-12-22T11:07:20.326Z,10.00
2022-12-22T11:09:49.273Z,9.40
2022-12-22T11:12:31.276Z,10.70
2022-12-22T11:15:08.092Z,10.50
2022-12-22T11:17:49.576Z,10.60
2022-12-22T11:20:21.124Z,10.70
2022-12-22T11:23:22.363Z,10.10
2022-12-22T11:25:56.944Z,10.80
2022-12-22T11:28:25.686Z,10.40
2022-12-22T11:31:13.185Z,11.00
2022-12-22T11:34:01.546Z,10.90
2022-12-22T11:36:55.270Z,10.80
2022-12-22T11:39:43.995Z,10.70
2022-12-22T11:42:31.537Z,11.40
2022-12-22T11:45:15.561Z,10.70
2022-12-22T11:47:52.875Z,10.00
2022-12-22T11:51:00.382Z,10.60
2022-12-22T11:53:29.447Z,10.50
2022-12-22T11:56:04.389Z,9.50
2022-12-22T11:58:46.504Z,10.80
2022-12-22T12:01:29.276Z,10.10
2022-12-22T12:03:58.350Z,10.30
2022-12-22T12:06:31.172Z,10.00
2022-12-22T12:11:34.576Z,10.90
2022-12-22T12:14:21.569Z,10.30
2022-12-22T12:16:58.438Z,10.10
2022-12-22T12:19:36.554Z,10.20
2022-12-22T12:22:06.051Z,10.00
2022-12-22T12:24:34.995Z,10.30
2022-12-22T12:27:09.625Z,10.30
2022-12-22T12:29:42.034Z,10.10
2022-12-22T12:32:15.803Z,10.00
2022-12-22T12:34:46.879Z,9.70
2022-12-22T12:37:26.393Z,9.50
2022-12-22T12:39:56.172Z,10.00
2022-12-22T12:42:27.948Z,9.10
2022-12-22T12:44:56.735Z,8.40
2022-12-22T12:47:25.534Z,8.50
2022-12-22T12:49:55.931Z,8.20
2022-12-22T12:52:36.937Z,8.60
2022-12-22T12:55:31.383Z,8.60
2022-12-22T12:58:02.263Z,8.40
2022-12-22T13:00:31.008Z,8.40
2022-12-22T13:02:59.976Z,8.00
2022-12-22T13:05:36.501Z,8.40
2022-12-22T13:08:10.362Z,8.60
2022-12-22T13:10:41.104Z,7.80
2022-12-22T13:13:35.678Z,8.50
2022-12-22T13:16:04.540Z,7.40
2022-12-22T13:18:33.350Z,9.40
2022-12-22T13:21:34.381Z,7.60
2022-12-22T13:24:27.261Z,8.50
2022-12-22T13:27:05.315Z,7.70
2022-12-22T13:29:41.963Z,8.30
2022-12-22T13:32:28.840Z,8.00
2022-12-22T13:38:02.422Z,8.00
2022-12-22T13:40:42.143Z,8.10
2022-12-22T13:43:12.597Z,7.70
2022-12-22T13:45:45.917Z,8.20
2022-12-22T13:48:17.757Z,8.00
2022-12-22T13:50:57.646Z,8.40
2022-12-22T13:56:34.179Z,8.90
2022-12-22T13:59:03.264Z,9.10
2022-12-22T14:01:32.209Z,9.00
2022-12-22T14:04:04.208Z,8.10
2022-12-22T14:06:34.862Z,8.60
2022-12-22T14:09:10.950Z,8.50
2022-12-22T14:11:44.090Z,9.10
2022-12-22T14:14:20.715Z,9.10
2022-12-22T14:16:50.889Z,8.90
2022-12-22T14:19:23.206Z,8.80
2022-12-22T14:22:02.207Z,8.60
2022-12-22T14:24:38.051Z,9.00
2022-12-22T14:27:13.581Z,8.70
2022-12-22T14:29:43.031Z,8.70
2022-12-22T14:32:12.642Z,9.50
2022-12-22T14:34:41.370Z,9.00
2022-12-22T14:37:11.243Z,9.60
2022-12-22T14:39:40.100Z,9.20
2022-12-22T14:42:13.158Z,9.80
2022-12-22T14:44:52.471Z,9.90
2022-12-22T14:47:26.694Z,9.90
2022-12-22T14:50:01.417Z,9.70
2022-12-22T14:52:46.911Z,10.80
2022-12-22T14:55:32.720Z,10.00
2022-12-22T14:58:24.693Z,10.10
2022-12-22T15:01:12.301Z,10.00
2022-12-22T15:03:41.492Z,10.50
2022-12-22T15:06:28.403Z,10.70
2022-12-22T15:09:12.209Z,9.30
2022-12-22T15:11:43.488Z,10.20
2022-12-22T15:14:13.992Z,9.90
2022-12-22T15:16:43.512Z,10.10
2022-12-22T15:19:16.652Z,10.30
2022-12-22T15:21:45.393Z,10.10
2022-12-22T15:24:15.666Z,9.30
2022-12-22T15:26:44.872Z,10.90
2022-12-22T15:29:14.057Z,10.40
2022-12-22T15:31:43.113Z,10.00
2022-12-22T15:34:14.255Z,9.60
2022-12-22T15:36:43.089Z,9.40
2022-12-22T15:39:13.320Z,9.80
2022-12-22T15:41:42.047Z,9.80
2022-12-22T15:44:11.319Z,9.60
2022-12-22T15:46:41.414Z,9.40
2022-12-22T15:49:21.031Z,10.30
2022-12-22T15:51:50.940Z,9.40
2022-12-22T15:54:19.871Z,9.40
2022-12-22T15:56:50.202Z,9.90
2022-12-22T15:59:21.026Z,9.90
2022-12-22T16:01:56.587Z,8.90
2022-12-22T16:04:29.486Z,10.20
2022-12-22T16:06:58.978Z,9.50
2022-12-22T16:09:32.563Z,9.60
2022-12-22T16:12:01.296Z,9.20
2022-12-22T16:14:35.257Z,10.30
2022-12-22T16:17:13.564Z,10.10
2022-12-22T16:19:42.247Z,9.40
2022-12-22T16:22:11.809Z,9.20
2022-12-22T16:24:41.426Z,9.50
2022-12-22T16:27:11.472Z,10.30
2022-12-22T16:29:43.280Z,10.00
2022-12-22T16:32:17.568Z,9.80
2022-12-22T16:34:46.840Z,9.80
2022-12-22T16:37:15.552Z,10.30
2022-12-22T16:39:44.933Z,10.00
2022-12-22T16:45:04.385Z,10.40
2022-12-22T16:47:34.351Z,10.40
2022-12-22T16:50:03.485Z,10.20
2022-12-22T16:52:37.652Z,10.20
2022-12-22T16:55:13.444Z,9.20
2022-12-22T16:57:42.412Z,10.70
2022-12-22T17:00:18.519Z,10.10
2022-12-22T17:02:57.006Z,11.00
2022-12-22T17:05:27.374Z,11.30
2022-12-22T17:07:56.575Z,10.20
2022-12-22T17:10:25.382Z,10.50
2022-12-22T17:12:54.676Z,11.30
2022-12-22T17:15:24.084Z,10.70
2022-12-22T17:17:53.096Z,10.90
2022-12-22T17:20:23.225Z,10.80
2022-12-22T17:22:57.556Z,10.30
2022-12-22T17:25:27.878Z,10.60
2022-12-22T17:27:57.534Z,10.80
2022-12-22T17:30:27.209Z,10.30
2022-12-22T17:32:55.907Z,10.40
2022-12-22T17:35:26.175Z,10.60
2022-12-22T17:37:54.910Z,10.10
2022-12-22T17:40:26.545Z,11.30
2022-12-22T17:42:55.443Z,11.90
2022-12-22T17:45:24.396Z,13.10
2022-12-22T17:47:53.221Z,12.00
2022-12-22T17:50:23.372Z,11.60
2022-12-22T17:52:52.168Z,12.70
2022-12-22T17:56:05.370Z,11.90
2022-12-22T17:58:16.987Z,11.70
2022-12-22T18:00:45.719Z,12.60
2022-12-22T18:03:15.425Z,12.60
2022-12-22T18:05:45.971Z,12.40
2022-12-22T18:08:19.728Z,12.20
2022-12-22T18:10:48.591Z,11.70
2022-12-22T18:13:21.228Z,12.50
2022-12-22T18:15:50.462Z,12.30
2022-12-22T18:18:20.893Z,12.40
2022-12-22T18:21:05.887Z,12.30
2022-12-22T18:23:37.301Z,12.70
2022-12-22T18:26:08.448Z,13.10
2022-12-22T18:28:37.237Z,11.70
2022-12-22T18:31:06.152Z,12.60
2022-12-22T18:33:34.860Z,13.00
2022-12-22T18:36:03.790Z,13.50
2022-12-22T18:38:33.305Z,12.20
2022-12-22T18:41:02.201Z,13.00
2022-12-22T18:43:30.998Z,13.20
2022-12-22T18:45:59.786Z,13.30
2022-12-22T18:48:28.593Z,12.80
2022-12-22T18:50:57.311Z,12.80
2022-12-22T18:53:28.017Z,13.70
2022-12-22T18:55:57.665Z,13.30
2022-12-22T18:58:26.471Z,12.30
2022-12-22T19:00:55.876Z,12.20
2022-12-22T19:03:26.490Z,12.60
2022-12-22T19:05:55.333Z,12.70
2022-12-22T19:08:25.435Z,12.80
2022-12-22T19:10:55.387Z,13.60
2022-12-22T19:13:30.049Z,13.60
2022-12-22T19:15:59.002Z,11.60
2022-12-22T19:18:28.339Z,12.60
2022-12-22T19:20:57.092Z,12.60
2022-12-22T19:23:25.777Z,12.00
2022-12-22T19:25:55.792Z,12.10
2022-12-22T19:28:30.187Z,12.90
2022-12-22T19:30:59.120Z,13.20
2022-12-22T19:33:30.251Z,13.80
2022-12-22T19:36:01.148Z,12.80
2022-12-22T19:38:30.801Z,12.90
2022-12-22T19:41:01.011Z,12.30
2022-12-22T19:43:33.865Z,12.20
2022-12-22T19:46:03.627Z,13.50
2022-12-22T19:48:32.433Z,13.10
2022-12-22T19:51:01.323Z,12.80
2022-12-22T19:53:30.038Z,11.80
2022-12-22T19:55:58.729Z,11.80
2022-12-22T19:58:37.699Z,12.10
2022-12-22T20:01:11.537Z,11.90
2022-12-22T20:03:40.612Z,11.30
2022-12-22T20:06:09.529Z,12.70
2022-12-22T20:08:38.250Z,12.30
2022-12-22T20:11:15.086Z,12.90
2022-12-22T20:13:44.233Z,12.30
2022-12-22T20:16:13.777Z,12.60
2022-12-22T20:18:42.815Z,12.00
2022-12-22T20:21:24.600Z,12.70
2022-12-22T20:23:53.999Z,12.10
2022-12-22T20:26:24.971Z,11.30
2022-12-22T20:28:53.904Z,11.00
2022-12-22T20:31:24.017Z,11.30
2022-12-22T20:33:54.864Z,10.50
2022-12-22T20:36:28.845Z,11.40
2022-12-22T20:38:58.583Z,10.20
2022-12-22T20:41:27.688Z,10.20
2022-12-22T20:43:56.380Z,10.80
2022-12-22T20:46:26.040Z,10.90
2022-12-22T20:48:56.310Z,10.10
2022-12-22T20:51:27.030Z,10.10
2022-12-22T20:53:57.213Z,10.40
2022-12-22T20:56:28.170Z,10.20
2022-12-22T20:58:57.656Z,9.30
2022-12-22T21:01:26.885Z,9.30
2022-12-22T21:03:55.749Z,9.20
2022-12-22T21:06:26.311Z,9.90
2022-12-22T21:08:55.945Z,9.30
2022-12-22T21:11:25.150Z,9.70
2022-12-22T21:13:54.297Z,10.00
2022-12-22T21:16:24.010Z,10.00
2022-12-22T21:18:53.629Z,9.00
2022-12-22T21:21:22.371Z,9.60
2022-12-22T21:23:51.215Z,9.10
2022-12-22T21:26:26.069Z,9.90
2022-12-22T21:28:54.940Z,9.60
2022-12-22T21:31:23.635Z,8.60
2022-12-22T21:33:52.364Z,9.10
2022-12-22T21:36:24.069Z,8.60
2022-12-22T21:38:54.870Z,8.80
2022-12-22T21:41:43.832Z,8.40
2022-12-22T21:44:13.399Z,9.10
2022-12-22T21:46:43.835Z,8.90
2022-12-22T21:49:16.738Z,9.40
2022-12-22T21:51:49.490Z,8.90
2022-12-22T21:54:19.556Z,8.10
2022-12-22T21:56:48.717Z,7.60
2022-12-22T21:59:17.399Z,8.70
2022-12-22T22:01:46.842Z,8.00
2022-12-22T22:04:15.950Z,8.00
2022-12-22T22:06:44.836Z,8.60
2022-12-22T22:09:13.673Z,7.90
2022-12-22T22:12:01.369Z,8.20
2022-12-22T22:14:30.410Z,7.90
2022-12-22T22:16:59.207Z,7.80
2022-12-22T22:19:27.975Z,8.20
2022-12-22T22:21:56.790Z,8.60
2022-12-22T22:24:25.518Z,8.00
2022-12-22T22:26:56.028Z,8.60
2022-12-22T22:29:24.741Z,7.70
2022-12-22T22:31:53.560Z,8.00
2022-12-22T22:34:22.518Z,8.90
2022-12-22T22:36:51.607Z,8.50
2022-12-22T22:39:21.636Z,8.50
2022-12-22T22:41:50.628Z,8.30
2022-12-22T22:44:19.794Z,8.60
2022-12-22T22:46:48.517Z,8.20
2022-12-22T22:49:21.363Z,8.10
2022-12-22T22:51:53.199Z,8.30
2022-12-22T22:54:22.131Z,9.00
2022-12-22T22:56:51.835Z,7.30
2022-12-22T22:59:20.761Z,8.60
2022-12-22T23:01:49.600Z,7.60
2022-12-22T23:04:18.561Z,7.90
2022-12-22T23:06:47.451Z,7.40
2022-12-22T23:09:16.255Z,8.00
2022-12-22T23:11:44.918Z,8.20
2022-12-22T23:14:13.652Z,7.30
2022-12-22T23:16:42.384Z,7.80
2022-12-22T23:19:11.856Z,7.50
2022-12-22T23:21:40.805Z,7.20
2022-12-22T23:24:09.575Z,7.80
2022-12-22T23:26:39.643Z,6.80
2022-12-22T23:29:08.472Z,8.20
2022-12-22T23:31:37.319Z,7.30
2022-12-22T23:34:06.223Z,7.30
2022-12-22T23:36:35.029Z,7.20
2022-12-22T23:39:03.985Z,7.20
2022-12-22T23:41:32.733Z,7.60
2022-12-22T23:44:01.619Z,8.10
2022-12-22T23:46:30.423Z,8.30
2022-12-22T23:48:59.215Z,8.50
2022-12-22T23:51:28.737Z,7.80
2022-12-22T23:53:58.992Z,8.50
2022-12-22T23:56:28.465Z,7.70
2022-12-22T23:58:57.210Z,7.30
